Time;durP1;ratioP1;P1;durP2;ratioP2;P2;SDS_P1;SDS_P2;PMS_P1;PMS_P2;Temp;Humidity;BMP_temperature;BMP_pressure;BME280_temperature;BME280_humidity;BME280_pressure;Samples;Min_cycle;Max_cycle;Signal;HPM_P1;HPM_P2
2022/06/17 00:00:13;;;;;;;5.97;5.47;;;13.70;99.90;;;;;;5055745;28;20190;-71
2022/06/17 00:02:39;;;;;;;5.40;4.90;;;13.70;99.90;;;;;;5037893;28;20171;-73
2022/06/17 00:05:05;;;;;;;8.73;5.10;;;13.70;99.90;;;;;;5055732;28;20405;-73
2022/06/17 00:07:31;;;;;;;6.07;5.43;;;13.70;99.90;;;;;;5054857;28;20433;-73
2022/06/17 00:09:57;;;;;;;5.83;5.33;;;13.60;99.90;;;;;;5055523;28;20933;-73
2022/06/17 00:12:22;;;;;;;5.87;5.13;;;13.60;99.90;;;;;;5054735;28;20177;-70
2022/06/17 00:17:32;;;;;;;6.00;5.37;;;13.60;99.90;;;;;;5054814;28;20539;-70
2022/06/17 00:19:58;;;;;;;5.63;5.13;;;13.50;99.90;;;;;;5055299;28;20417;-69
2022/06/17 00:22:25;;;;;;;5.90;5.40;;;13.50;99.90;;;;;;5055391;28;20183;-71
2022/06/17 00:24:53;;;;;;;6.20;5.23;;;13.40;99.90;;;;;;5055469;28;20838;-73
2022/06/17 00:27:19;;;;;;;5.70;5.20;;;13.40;99.90;;;;;;5054430;28;20405;-73
2022/06/17 00:29:44;;;;;;;6.90;5.97;;;13.40;99.90;;;;;;5054637;28;20433;-70
2022/06/17 00:32:10;;;;;;;6.60;5.10;;;13.40;99.90;;;;;;5054961;28;20470;-69
2022/06/17 00:34:36;;;;;;;5.77;5.27;;;13.30;99.90;;;;;;5055114;28;20591;-73
2022/06/17 00:37:06;;;;;;;9.13;6.10;;;13.30;99.90;;;;;;5054130;28;20170;-70
2022/06/17 00:39:33;;;;;;;6.70;5.77;;;13.30;99.90;;;;;;5055057;28;20555;-70
2022/06/17 00:42:05;;;;;;;8.20;5.80;;;13.30;99.90;;;;;;5054982;28;20405;-73
2022/06/17 00:44:54;;;;;;;7.73;5.80;;;13.20;99.90;;;;;;5054915;28;20941;-70
2022/06/17 00:47:30;;;;;;;6.13;5.53;;;13.20;99.90;;;;;;5053824;28;20869;-71
2022/06/17 00:50:13;;;;;;;7.20;6.60;;;13.20;99.90;;;;;;5054211;28;21006;-73
2022/06/17 00:52:47;;;;;;;8.83;7.93;;;13.10;99.90;;;;;;5054719;28;20406;-69
2022/06/17 00:55:29;;;;;;;14.40;8.03;;;13.10;99.90;;;;;;5054712;28;20456;-73
2022/06/17 00:57:57;;;;;;;7.67;6.97;;;13.20;99.90;;;;;;5053838;28;20402;-73
2022/06/17 01:00:26;;;;;;;9.20;7.00;;;13.10;99.90;;;;;;5054675;28;20364;-72
2022/06/17 01:02:53;;;;;;;8.30;6.93;;;13.10;99.90;;;;;;5054706;28;20416;-69
2022/06/17 01:05:22;;;;;;;8.43;7.40;;;13.20;99.90;;;;;;5053825;28;20390;-71
2022/06/17 01:07:57;;;;;;;11.97;7.40;;;13.10;99.90;;;;;;5053601;28;20727;-73
2022/06/17 01:10:24;;;;;;;14.53;8.50;;;13.20;99.90;;;;;;5054481;28;20401;-72
2022/06/17 01:12:54;;;;;;;12.87;9.37;;;13.10;99.90;;;;;;5054439;28;20376;-74
2022/06/17 01:15:22;;;;;;;11.50;9.60;;;13.20;99.90;;;;;;5054372;28;20439;-75
2022/06/17 01:17:49;;;;;;;9.13;8.17;;;13.10;99.90;;;;;;5053430;28;20384;-70
2022/06/17 01:20:16;;;;;;;14.17;8.80;;;13.10;99.90;;;;;;5054527;28;20484;-70
2022/06/17 01:22:49;;;;;;;12.70;7.57;;;13.20;99.90;;;;;;5053206;28;20417;-70
2022/06/17 01:25:20;;;;;;;11.90;10.70;;;13.20;99.90;;;;;;5054236;28;20377;-69
2022/06/17 01:27:51;;;;;;;20.73;9.83;;;13.10;99.90;;;;;;5053176;28;20397;-72
2022/06/17 01:30:26;;;;;;;12.50;9.57;;;13.20;99.90;;;;;;5054370;28;20372;-70
2022/06/17 01:32:57;;;;;;;14.90;10.20;;;13.10;99.90;;;;;;5054081;28;20376;-73
2022/06/17 01:35:26;;;;;;;11.70;9.03;;;13.20;99.90;;;;;;5054052;28;20402;-70
2022/06/17 01:37:52;;;;;;;16.50;10.97;;;13.10;99.90;;;;;;5053026;28;20437;-70
2022/06/17 01:40:20;;;;;;;15.53;10.70;;;13.10;99.90;;;;;;5053989;28;20408;-70
2022/06/17 01:42:47;;;;;;;11.47;9.80;;;13.10;99.90;;;;;;5052975;28;20409;-73
2022/06/17 01:45:14;;;;;;;22.50;11.70;;;13.10;99.90;;;;;;5053793;28;20380;-70
2022/06/17 01:47:43;;;;;;;15.43;11.83;;;13.10;99.90;;;;;;5052984;28;20737;-73
2022/06/17 01:50:14;;;;;;;20.10;14.00;;;13.00;99.90;;;;;;5053142;28;20408;-73
2022/06/17 01:53:07;;;;;;;18.93;12.90;;;13.00;99.90;;;;;;5053597;28;20442;-72
2022/06/17 01:55:38;;;;;;;18.00;14.23;;;13.10;99.90;;;;;;5053810;28;20419;-73
2022/06/17 01:58:14;;;;;;;14.83;13.23;;;13.10;99.90;;;;;;5052226;28;20386;-70
2022/06/17 02:00:42;;;;;;;22.43;13.73;;;13.10;99.90;;;;;;5053186;28;20389;-69
2022/06/17 02:03:16;;;;;;;18.77;13.40;;;13.10;99.90;;;;;;5035510;28;20900;-70
2022/06/17 02:05:45;;;;;;;21.40;14.20;;;13.00;99.90;;;;;;5053617;28;20401;-72
2022/06/17 02:08:11;;;;;;;20.77;13.83;;;13.00;99.90;;;;;;5052643;28;20551;-73
2022/06/17 02:10:47;;;;;;;17.77;14.57;;;13.00;99.90;;;;;;5053410;28;20459;-73
2022/06/17 02:13:14;;;;;;;17.53;12.87;;;13.00;99.90;;;;;;5053228;28;20191;-69
2022/06/17 02:15:42;;;;;;;22.10;15.63;;;13.10;1.00;;;;;;5053354;28;20421;-69
2022/06/17 02:18:14;;;;;;;21.43;13.63;;;13.10;1.00;;;;;;5051980;28;20449;-70
2022/06/17 02:20:41;;;;;;;22.53;12.80;;;13.10;1.00;;;;;;5052845;28;20389;-70
2022/06/17 02:23:07;;;;;;;21.47;15.93;;;13.00;1.00;;;;;;5053128;28;20457;-69
2022/06/17 02:25:47;;;;;;;21.47;13.80;;;13.10;1.00;;;;;;5053347;28;20391;-69
2022/06/17 02:28:15;;;;;;;23.00;15.07;;;13.10;1.00;;;;;;5052249;28;20444;-70
2022/06/17 02:30:42;;;;;;;23.20;16.00;;;13.00;1.00;;;;;;5053112;28;20360;-73
2022/06/17 02:33:10;;;;;;;18.30;14.73;;;12.90;1.00;;;;;;5052838;28;20394;-69
2022/06/17 02:35:54;;;;;;;22.60;15.40;;;12.90;1.00;;;;;;5053079;28;20383;-70
2022/06/17 02:38:23;;;;;;;23.83;14.90;;;12.90;1.00;;;;;;5051339;28;20433;-69
2022/06/17 02:40:55;;;;;;;20.33;14.83;;;12.90;1.00;;;;;;5052941;28;20379;-73
2022/06/17 02:43:28;;;;;;;25.37;15.17;;;12.80;1.00;;;;;;5052836;28;20390;-70
2022/06/17 02:46:05;;;;;;;17.27;13.83;;;12.80;1.00;;;;;;5052938;28;20886;-69
2022/06/17 02:48:41;;;;;;;23.90;14.07;;;12.80;1.00;;;;;;5051858;28;20426;-73
2022/06/17 02:51:07;;;;;;;19.00;14.30;;;12.70;1.00;;;;;;5052800;28;20411;-73
2022/06/17 02:53:38;;;;;;;18.00;12.53;;;12.70;1.00;;;;;;5052822;28;20825;-69
2022/06/17 02:56:07;;;;;;;21.60;15.60;;;12.70;1.00;;;;;;5051940;28;20162;-69
2022/06/17 02:59:11;;;;;;;18.70;13.17;;;12.60;1.00;;;;;;5051815;28;20896;-73
2022/06/17 03:01:39;;;;;;;21.20;13.47;;;12.60;1.00;;;;;;5054770;28;20393;-69
2022/06/17 03:04:34;;;;;;;20.00;13.40;;;12.60;1.00;;;;;;5056896;28;20501;-69
2022/06/17 03:07:01;;;;;;;17.00;13.13;;;12.60;1.00;;;;;;5038899;28;20388;-69
2022/06/17 03:09:29;;;;;;;19.10;14.20;;;12.50;1.00;;;;;;5056646;28;20791;-72
2022/06/17 03:12:04;;;;;;;19.00;14.27;;;12.50;1.00;;;;;;5038884;28;20388;-70
2022/06/17 03:14:48;;;;;;;20.60;15.10;;;12.50;99.90;;;;;;5056692;28;20449;-69
2022/06/17 03:17:17;;;;;;;18.17;14.50;;;12.40;99.90;;;;;;5037122;28;20417;-72
2022/06/17 03:19:46;;;;;;;17.57;13.90;;;12.40;99.90;;;;;;5056497;28;20424;-69
2022/06/17 03:22:13;;;;;;;21.83;14.80;;;12.40;1.00;;;;;;5038740;28;20391;-73
2022/06/17 03:24:45;;;;;;;18.13;13.33;;;12.40;1.00;;;;;;5056408;28;20480;-69
2022/06/17 03:27:18;;;;;;;17.00;13.80;;;12.40;1.00;;;;;;5055736;28;20397;-73
2022/06/17 03:29:46;;;;;;;20.70;14.60;;;12.40;1.00;;;;;;5056273;28;20459;-72
2022/06/17 03:32:22;;;;;;;22.70;16.30;;;12.40;1.00;;;;;;5056557;28;20899;-69
2022/06/17 03:34:51;;;;;;;23.10;14.63;;;12.40;1.00;;;;;;5054962;28;20441;-73
2022/06/17 03:37:39;;;;;;;25.07;15.60;;;12.40;1.00;;;;;;5055333;28;20882;-70
2022/06/17 03:40:18;;;;;;;20.50;13.87;;;12.50;1.00;;;;;;5038200;28;20429;-73
2022/06/17 03:43:02;;;;;;;22.20;16.50;;;12.40;1.00;;;;;;5056173;28;20382;-73
2022/06/17 03:45:46;;;;;;;22.20;15.30;;;12.50;1.00;;;;;;5056060;28;20932;-73
2022/06/17 03:48:33;;;;;;;23.80;16.90;;;12.50;1.00;;;;;;5055149;28;20520;-73
2022/06/17 03:50:59;;;;;;;25.67;17.63;;;12.60;1.00;;;;;;5056165;28;20407;-73
2022/06/17 03:53:30;;;;;;;27.87;19.50;;;12.60;1.00;;;;;;5037458;28;20480;-69
2022/06/17 03:56:17;;;;;;;27.77;19.13;;;12.60;1.00;;;;;;5055593;28;20213;-73
2022/06/17 03:58:44;;;;;;;27.10;17.93;;;12.70;1.00;;;;;;5055112;28;20512;-69
2022/06/17 04:01:15;;;;;;;30.43;18.70;;;12.80;1.00;;;;;;5055738;28;20409;-69
2022/06/17 04:03:44;;;;;;;27.10;19.77;;;12.80;1.00;;;;;;5055793;28;20380;-71
2022/06/17 04:06:17;;;;;;;27.47;18.60;;;12.80;1.00;;;;;;5055466;28;20422;-71
2022/06/17 04:08:50;;;;;;;29.10;18.67;;;12.90;1.00;;;;;;5054966;28;20418;-69
2022/06/17 04:11:17;;;;;;;32.77;22.37;;;13.00;1.00;;;;;;5055287;28;20470;-73
2022/06/17 04:13:43;;;;;;;31.57;19.93;;;13.10;1.00;;;;;;5054299;28;20453;-69
2022/06/17 04:16:35;;;;;;;28.37;20.20;;;13.10;1.00;;;;;;5037521;28;20402;-73
2022/06/17 04:19:15;;;;;;;29.30;18.97;;;13.20;1.00;;;;;;5055506;28;20413;-70
2022/06/17 04:21:41;;;;;;;33.23;20.43;;;13.20;1.00;;;;;;5055499;28;20425;-72
2022/06/17 04:24:14;;;;;;;33.60;20.27;;;13.20;1.00;;;;;;5055334;28;20433;-69
2022/06/17 04:26:42;;;;;;;31.73;21.80;;;13.30;1.00;;;;;;5054437;28;20229;-72
2022/06/17 04:29:14;;;;;;;32.37;21.80;;;13.30;1.00;;;;;;5055149;28;20404;-72
2022/06/17 04:31:42;;;;;;;33.87;21.97;;;13.30;1.00;;;;;;5055458;28;20380;-69
2022/06/17 04:34:16;;;;;;;33.30;23.50;;;13.40;1.00;;;;;;5054332;28;20444;-73
2022/06/17 04:37:02;;;;;;;29.83;20.50;;;13.50;1.00;;;;;;5054268;28;20384;-69
2022/06/17 04:39:33;;;;;;;35.70;23.10;;;13.60;1.00;;;;;;5054962;28;20931;-73
2022/06/17 04:42:04;;;;;;;34.10;23.23;;;13.60;1.00;;;;;;5054958;28;20393;-69
2022/06/17 04:44:29;;;;;;;29.73;20.67;;;13.70;1.00;;;;;;5054887;28;20405;-69
2022/06/17 04:47:05;;;;;;;32.50;23.17;;;13.70;1.00;;;;;;5054190;28;20455;-73
2022/06/17 04:49:36;;;;;;;32.13;23.47;;;13.80;1.00;;;;;;5054889;28;20202;-68
2022/06/17 04:52:07;;;;;;;31.93;21.20;;;13.90;1.00;;;;;;5053837;28;20761;-69
2022/06/17 04:54:33;;;;;;;34.63;22.67;;;14.00;1.00;;;;;;5054793;28;20426;-69
2022/06/17 04:57:03;;;;;;;36.47;22.77;;;14.00;1.00;;;;;;5054113;28;20441;-69
2022/06/17 04:59:37;;;;;;;32.20;22.97;;;14.00;1.00;;;;;;5054827;28;20392;-69
2022/06/17 05:02:14;;;;;;;30.00;21.53;;;14.20;1.00;;;;;;5054883;28;20400;-72
2022/06/17 05:04:41;;;;;;;32.13;21.87;;;14.20;1.00;;;;;;5054534;28;20401;-72
2022/06/17 05:07:07;;;;;;;30.77;23.63;;;14.20;1.00;;;;;;5053804;28;20401;-69
2022/06/17 05:09:44;;;;;;;30.80;23.00;;;14.20;1.00;;;;;;5054263;28;20404;-70
2022/06/17 05:12:42;;;;;;;35.80;22.57;;;14.20;1.00;;;;;;5054238;28;20175;-73
2022/06/17 05:15:16;;;;;;;34.47;22.53;;;14.20;1.00;;;;;;5050215;28;20454;-68
2022/06/17 05:17:42;;;;;;;31.47;22.13;;;14.20;1.00;;;;;;5053634;28;20447;-70
2022/06/17 05:20:13;;;;;;;32.70;22.47;;;14.30;1.00;;;;;;5036507;28;20782;-73
2022/06/17 05:22:49;;;;;;;32.00;20.60;;;14.30;1.00;;;;;;5054239;28;20380;-69
2022/06/17 05:25:19;;;;;;;30.27;21.50;;;14.40;1.00;;;;;;5053385;28;20405;-69
2022/06/17 05:27:45;;;;;;;31.83;19.67;;;14.40;1.00;;;;;;5052511;28;20459;-72
2022/06/17 05:30:12;;;;;;;32.50;21.53;;;14.40;1.00;;;;;;5054001;28;20417;-69
2022/06/17 05:32:40;;;;;;;26.83;18.27;;;14.50;1.00;;;;;;5036067;28;20777;-73
2022/06/17 05:35:06;;;;;;;27.20;19.00;;;14.50;1.00;;;;;;5053940;28;20506;-69
2022/06/17 05:37:32;;;;;;;25.13;17.70;;;14.60;1.00;;;;;;5053168;28;20816;-69
2022/06/17 05:39:57;;;;;;;25.17;18.67;;;14.60;1.00;;;;;;5035954;28;20461;-71
2022/06/17 05:42:23;;;;;;;28.10;20.40;;;14.70;1.00;;;;;;5054018;28;20174;-69
2022/06/17 05:44:49;;;;;;;25.93;18.30;;;14.80;1.00;;;;;;5053806;28;20261;-71
2022/06/17 05:47:15;;;;;;;26.80;17.63;;;14.80;1.00;;;;;;5052275;28;20167;-71
2022/06/17 05:49:40;;;;;;;26.10;18.17;;;14.80;1.00;;;;;;5053322;28;20217;-71
2022/06/17 05:52:08;;;;;;;23.73;17.60;;;14.90;1.00;;;;;;5053652;28;20203;-70
2022/06/17 05:54:33;;;;;;;23.30;17.27;;;15.00;1.00;;;;;;5053368;28;20297;-70
2022/06/17 05:56:59;;;;;;;28.20;18.60;;;15.00;1.00;;;;;;5052610;28;20413;-71
2022/06/17 05:59:25;;;;;;;23.53;15.73;;;15.10;1.00;;;;;;5053412;28;20209;-71
2022/06/17 06:01:51;;;;;;;23.47;16.77;;;15.10;1.00;;;;;;5053363;28;20174;-71
2022/06/17 06:04:16;;;;;;;25.60;17.10;;;15.10;1.00;;;;;;5052672;28;20175;-71
2022/06/17 06:06:42;;;;;;;19.43;15.27;;;15.20;1.00;;;;;;5052391;28;20574;-69
2022/06/17 06:09:09;;;;;;;22.67;16.23;;;15.20;1.00;;;;;;5053220;28;20194;-70
2022/06/17 06:11:35;;;;;;;21.90;15.67;;;15.40;1.00;;;;;;5053604;28;20159;-67
2022/06/17 06:14:00;;;;;;;19.33;15.97;;;15.40;1.00;;;;;;5053319;28;20457;-70
2022/06/17 06:16:26;;;;;;;21.47;16.20;;;15.40;1.00;;;;;;5053043;28;20484;-70
2022/06/17 06:18:52;;;;;;;18.30;14.80;;;15.50;1.00;;;;;;5052676;28;20258;-71
2022/06/17 06:21:18;;;;;;;19.20;15.57;;;15.60;1.00;;;;;;5052256;28;20519;-67
2022/06/17 06:23:44;;;;;;;18.60;15.00;;;15.70;1.00;;;;;;5053180;28;20171;-67
2022/06/17 06:26:15;;;;;;;24.57;15.53;;;15.70;1.00;;;;;;5053196;28;20488;-68
2022/06/17 06:28:41;;;;;;;20.13;16.17;;;15.70;1.00;;;;;;5052358;28;20464;-67
2022/06/17 06:31:26;;;;;;;20.57;16.43;;;15.90;1.00;;;;;;5053023;28;20413;-67
2022/06/17 06:33:53;;;;;;;23.90;16.33;;;16.00;1.00;;;;;;5053077;28;20208;-71
2022/06/17 06:36:20;;;;;;;25.47;16.97;;;16.10;1.00;;;;;;5034808;28;20467;-70
2022/06/17 06:38:45;;;;;;;19.10;14.30;;;16.20;1.00;;;;;;5051963;28;20417;-68
2022/06/17 06:41:11;;;;;;;20.10;15.40;;;16.20;1.00;;;;;;5052354;28;20917;-69
2022/06/17 06:43:37;;;;;;;23.67;14.83;;;16.30;1.00;;;;;;5052990;28;20652;-71
2022/06/17 06:46:12;;;;;;;21.27;13.13;;;16.40;1.00;;;;;;5052921;28;20171;-73
2022/06/17 06:48:38;;;;;;;17.87;13.70;;;16.40;1.00;;;;;;5051896;28;20229;-72
2022/06/17 06:51:04;;;;;;;14.90;12.20;;;16.50;1.00;;;;;;5052847;28;20485;-73
2022/06/17 06:53:30;;;;;;;23.67;13.67;;;16.60;1.00;;;;;;5052807;28;20528;-68
2022/06/17 06:55:56;;;;;;;17.73;13.30;;;16.60;1.00;;;;;;5052413;28;20174;-72
2022/06/17 06:58:24;;;;;;;16.37;11.67;;;16.60;1.00;;;;;;5051583;28;20186;-69
2022/06/17 07:00:52;;;;;;;13.70;11.47;;;16.60;1.00;;;;;;5052871;28;20251;-70
2022/06/17 07:03:19;;;;;;;15.20;11.23;;;16.70;1.00;;;;;;5052633;28;20401;-70
2022/06/17 07:05:50;;;;;;;13.83;12.30;;;16.80;1.00;;;;;;5052862;28;20409;-70
2022/06/17 07:08:18;;;;;;;15.10;11.53;;;16.90;1.00;;;;;;5051909;28;20474;-67
2022/06/17 07:10:45;;;;;;;13.60;11.47;;;16.90;1.00;;;;;;5052677;28;20402;-67
2022/06/17 07:13:12;;;;;;;12.40;10.60;;;16.90;1.00;;;;;;5052535;28;20401;-70
2022/06/17 07:15:40;;;;;;;11.20;9.90;;;17.00;1.00;;;;;;5051602;28;20401;-68
2022/06/17 07:18:18;;;;;;;11.90;10.07;;;17.10;1.00;;;;;;5051620;28;20409;-70
2022/06/17 07:20:46;;;;;;;15.90;9.70;;;17.30;1.00;;;;;;5052698;28;20426;-68
2022/06/17 07:23:14;;;;;;;11.60;10.20;;;17.30;1.00;;;;;;5052533;28;20480;-67
2022/06/17 07:25:42;;;;;;;13.30;8.43;;;17.30;99.90;;;;;;5052345;28;20405;-69
2022/06/17 07:28:11;;;;;;;12.47;9.97;;;17.30;99.90;;;;;;5051154;28;20429;-69
2022/06/17 07:30:36;;;;;;;11.03;9.53;;;17.40;99.90;;;;;;5052716;28;20402;-67
2022/06/17 07:33:02;;;;;;;11.53;9.50;;;17.40;99.90;;;;;;5051928;28;20412;-68
2022/06/17 07:35:28;;;;;;;11.00;7.80;;;17.50;99.90;;;;;;5052364;28;20207;-69
2022/06/17 07:40:39;;;;;;;9.97;7.17;;;17.60;99.90;;;;;;5052463;28;20174;-66
2022/06/17 07:43:05;;;;;;;10.23;7.30;;;17.60;99.90;;;;;;5034494;28;20425;-66
2022/06/17 07:45:32;;;;;;;7.63;6.93;;;17.70;99.90;;;;;;5052368;28;20409;-67
2022/06/17 07:47:58;;;;;;;15.23;9.80;;;17.80;99.90;;;;;;5053684;28;20182;-67
2022/06/17 07:50:30;;;;;;;8.07;7.37;;;17.90;99.90;;;;;;5038139;28;20413;-69
2022/06/17 07:52:56;;;;;;;10.90;9.80;;;18.10;99.90;;;;;;5055331;28;20420;-67
2022/06/17 07:55:22;;;;;;;12.57;8.90;;;18.10;99.90;;;;;;5055920;28;20457;-69
2022/06/17 07:57:49;;;;;;;11.13;8.77;;;18.10;99.90;;;;;;5054849;28;20402;-69
2022/06/17 08:00:47;;;;;;;10.00;6.00;;;18.20;99.90;;;;;;5055919;28;20398;-70
2022/06/17 08:03:18;;;;;;;12.23;9.47;;;18.30;99.90;;;;;;5011807;28;20449;-69
2022/06/17 08:05:51;;;;;;;10.07;8.20;;;18.20;99.90;;;;;;5037719;28;20444;-69
2022/06/17 08:08:21;;;;;;;9.50;6.80;;;18.30;99.90;;;;;;5054741;28;21001;-67
2022/06/17 08:10:58;;;;;;;12.00;6.30;;;18.50;99.90;;;;;;5054997;28;20488;-70
2022/06/17 08:13:25;;;;;;;10.20;7.33;;;18.60;99.90;;;;;;5055588;28;20393;-70
2022/06/17 08:15:54;;;;;;;12.17;7.87;;;18.80;99.90;;;;;;5055570;28;20405;-67
2022/06/17 08:18:21;;;;;;;12.43;8.83;;;19.00;99.90;;;;;;5054479;28;20425;-67
2022/06/17 08:20:46;;;;;;;9.67;8.13;;;19.10;99.90;;;;;;5055522;28;20567;-69
2022/06/17 08:23:13;;;;;;;10.57;9.00;;;19.10;99.90;;;;;;5055570;28;20887;-67
2022/06/17 08:25:39;;;;;;;13.33;8.30;;;19.10;99.90;;;;;;5055381;28;20167;-69
2022/06/17 08:28:08;;;;;;;11.00;8.53;;;19.20;99.90;;;;;;5053736;28;20401;-68
2022/06/17 08:30:44;;;;;;;10.03;8.00;;;19.30;99.90;;;;;;5055484;28;20167;-66
2022/06/17 08:33:09;;;;;;;9.80;8.80;;;19.20;99.90;;;;;;5055209;28;20405;-70
2022/06/17 08:35:40;;;;;;;12.63;9.23;;;19.30;99.90;;;;;;5055306;28;20912;-68
2022/06/17 08:38:11;;;;;;;11.30;9.13;;;19.40;99.90;;;;;;5054033;28;20574;-67
2022/06/17 08:40:56;;;;;;;10.60;9.50;;;19.50;99.90;;;;;;5055198;28;20401;-68
2022/06/17 08:43:41;;;;;;;8.77;7.67;;;19.60;99.90;;;;;;5055149;28;20897;-67
2022/06/17 08:46:21;;;;;;;9.07;7.10;;;19.80;99.90;;;;;;5054278;28;20405;-70
2022/06/17 08:49:24;;;;;;;10.23;6.90;;;19.90;99.90;;;;;;5054156;28;20526;-70
2022/06/17 08:52:24;;;;;;;6.03;5.43;;;20.10;99.90;;;;;;5054941;28;20408;-69
2022/06/17 08:54:55;;;;;;;7.20;5.20;;;20.20;99.90;;;;;;5054739;28;20526;-70
2022/06/17 08:57:41;;;;;;;7.73;6.07;;;20.40;99.90;;;;;;5053948;28;20406;-68
2022/06/17 09:00:20;;;;;;;6.20;5.60;;;20.40;99.90;;;;;;5054578;28;20498;-68
2022/06/17 09:03:07;;;;;;;5.70;4.90;;;20.50;99.90;;;;;;5054086;28;20405;-68
2022/06/17 09:05:41;;;;;;;5.10;4.60;;;20.60;99.90;;;;;;5054627;28;20396;-67
2022/06/17 09:08:10;;;;;;;5.80;4.70;;;20.80;99.90;;;;;;5053596;28;20397;-71
2022/06/17 09:10:57;;;;;;;5.63;5.10;;;20.90;99.90;;;;;;5054542;28;20378;-69
2022/06/17 09:13:53;;;;;;;6.37;5.20;;;21.10;99.90;;;;;;5054472;28;20403;-70
2022/06/17 09:16:33;;;;;;;7.80;5.83;;;21.10;99.90;;;;;;5054112;28;20429;-67
2022/06/17 09:19:03;;;;;;;7.47;5.70;;;21.10;96.10;;;;;;5053692;28;21009;-70
2022/06/17 09:21:45;;;;;;;7.80;5.30;;;21.10;99.90;;;;;;5054292;28;20394;-68
2022/06/17 09:24:21;;;;;;;7.17;6.57;;;21.30;99.90;;;;;;5054226;28;20412;-70
2022/06/17 09:27:05;;;;;;;8.77;7.87;;;21.50;96.60;;;;;;5053322;28;21183;-67
2022/06/17 09:29:34;;;;;;;9.97;8.63;;;21.60;96.30;;;;;;5054138;28;20405;-70
2022/06/17 09:32:05;;;;;;;7.27;6.57;;;21.80;96.40;;;;;;5054305;28;20985;-67
2022/06/17 09:34:44;;;;;;;12.23;8.30;;;21.80;96.40;;;;;;5053899;28;20463;-68
2022/06/17 09:37:18;;;;;;;8.10;6.57;;;22.00;96.40;;;;;;5052758;28;20425;-70
2022/06/17 09:39:55;;;;;;;8.73;6.50;;;22.10;96.50;;;;;;5053828;28;20436;-69
2022/06/17 09:42:46;;;;;;;8.43;6.80;;;22.30;96.60;;;;;;5053842;28;20429;-70
2022/06/17 09:45:26;;;;;;;6.33;5.73;;;22.50;96.60;;;;;;5053887;28;20914;-67
2022/06/17 09:48:16;;;;;;;10.60;7.47;;;22.80;96.70;;;;;;5052725;28;20420;-70
2022/06/17 09:50:52;;;;;;;8.30;7.53;;;22.90;96.80;;;;;;5053746;28;20429;-70
2022/06/17 09:53:24;;;;;;;10.13;8.60;;;23.00;96.80;;;;;;5053192;28;20913;-68
2022/06/17 09:56:17;;;;;;;8.00;6.63;;;23.00;96.80;;;;;;5053804;28;20487;-71
2022/06/17 09:58:51;;;;;;;8.73;6.30;;;23.20;96.90;;;;;;5051740;28;20448;-68
2022/06/17 10:01:18;;;;;;;8.90;6.30;;;23.40;97.00;;;;;;5035845;28;20440;-72
2022/06/17 10:03:44;;;;;;;5.60;4.80;;;23.60;97.10;;;;;;5053552;28;20901;-71
2022/06/17 10:06:41;;;;;;;6.43;5.43;;;23.70;93.90;;;;;;5053450;28;20492;-69
2022/06/17 10:09:29;;;;;;;6.30;4.50;;;23.70;90.40;;;;;;5022416;28;20260;-71
2022/06/17 10:12:02;;;;;;;4.87;4.47;;;23.80;90.30;;;;;;5053033;28;20846;-71
2022/06/17 10:14:41;;;;;;;5.37;3.90;;;23.90;87.20;;;;;;5053377;28;20477;-67
2022/06/17 10:20:10;;;;;;;6.60;5.10;;;24.40;80.30;;;;;;5053278;28;20428;-72
2022/06/17 10:22:39;;;;;;;5.40;4.57;;;24.40;76.60;;;;;;5053352;28;20401;-68
2022/06/17 10:25:12;;;;;;;3.87;3.57;;;24.50;75.40;;;;;;5053181;28;20186;-72
2022/06/17 10:28:00;;;;;;;3.90;3.43;;;24.30;69.20;;;;;;5051748;28;20462;-68
2022/06/17 10:30:34;;;;;;;3.73;3.37;;;24.30;67.70;;;;;;5053245;28;20404;-68
2022/06/17 10:33:01;;;;;;;7.70;3.20;;;24.30;61.40;;;;;;5053063;28;20751;-72
2022/06/17 10:35:30;;;;;;;4.33;3.53;;;24.20;58.10;;;;;;5053059;28;20457;-68
2022/06/17 10:37:59;;;;;;;4.23;3.93;;;24.20;62.30;;;;;;5052181;28;20397;-72
2022/06/17 10:40:27;;;;;;;4.60;4.20;;;24.10;62.90;;;;;;5035135;28;20441;-72
2022/06/17 10:42:57;;;;;;;7.30;4.97;;;24.00;61.60;;;;;;5052978;28;20404;-67
2022/06/17 10:45:23;;;;;;;4.20;3.90;;;23.80;61.30;;;;;;5052935;28;20491;-70
2022/06/17 10:48:37;;;;;;;4.57;4.17;;;23.50;59.70;;;;;;5051342;28;20412;-72
2022/06/17 10:51:05;;;;;;;4.10;3.73;;;23.40;62.50;;;;;;4971984;28;20479;-72
2022/06/17 10:53:46;;;;;;;4.50;4.10;;;23.30;61.90;;;;;;5044555;28;20424;-72
2022/06/17 10:56:18;;;;;;;4.90;3.87;;;23.50;67.60;;;;;;5052764;28;20401;-68
2022/06/17 10:59:02;;;;;;;6.87;5.50;;;23.60;80.90;;;;;;5052053;28;20909;-68
2022/06/17 11:01:53;;;;;;;5.00;4.60;;;23.60;64.70;;;;;;5052724;28;20809;-67
2022/06/17 11:04:30;;;;;;;7.47;4.13;;;23.50;64.50;;;;;;5052761;28;20845;-68
2022/06/17 11:07:15;;;;;;;4.80;4.20;;;23.50;70.10;;;;;;5033524;28;20417;-68
2022/06/17 11:09:49;;;;;;;6.67;5.37;;;23.40;76.10;;;;;;5052664;28;20429;-67
2022/06/17 11:12:19;;;;;;;7.60;5.77;;;23.40;72.30;;;;;;5052702;28;20409;-68
2022/06/17 11:14:45;;;;;;;8.80;6.37;;;23.40;67.60;;;;;;5052653;28;20460;-69
2022/06/17 11:17:41;;;;;;;5.83;5.23;;;23.20;68.00;;;;;;5051773;28;20417;-67
2022/06/17 11:20:29;;;;;;;5.20;4.70;;;23.00;69.50;;;;;;5044589;28;20336;-72
2022/06/17 11:23:01;;;;;;;8.17;6.40;;;22.90;73.40;;;;;;5054755;28;20900;-70
2022/06/17 11:25:36;;;;;;;7.80;7.07;;;22.80;72.90;;;;;;5056303;28;20409;-68
2022/06/17 11:28:16;;;;;;;10.63;6.20;;;22.60;70.40;;;;;;5055675;28;20393;-67
2022/06/17 11:31:06;;;;;;;8.53;6.30;;;22.40;71.40;;;;;;5038683;28;20433;-70
2022/06/17 11:33:53;;;;;;;8.90;6.93;;;22.20;73.20;;;;;;5056285;28;20412;-72
2022/06/17 11:36:32;;;;;;;14.83;5.63;;;22.10;78.70;;;;;;5056036;28;20410;-72
2022/06/17 11:39:23;;;;;;;6.63;6.10;;;22.10;80.00;;;;;;5056268;28;20516;-72
2022/06/17 11:41:49;;;;;;;6.27;5.13;;;22.20;81.90;;;;;;5056336;28;20401;-67
2022/06/17 11:44:20;;;;;;;5.30;4.90;;;22.30;88.50;;;;;;5055648;28;20501;-68
2022/06/17 11:46:53;;;;;;;5.30;4.80;;;22.30;93.50;;;;;;5037324;28;20209;-68
2022/06/17 11:49:20;;;;;;;8.10;5.53;;;22.30;91.50;;;;;;5038187;28;20464;-71
2022/06/17 11:52:00;;;;;;;5.93;5.43;;;22.10;84.50;;;;;;5056022;28;20411;-72
2022/06/17 11:54:45;;;;;;;5.90;4.90;;;22.10;87.10;;;;;;5056017;28;20453;-71
2022/06/17 11:57:21;;;;;;;6.77;4.80;;;22.20;90.30;;;;;;5055280;28;20405;-72
2022/06/17 11:59:52;;;;;;;8.10;4.07;;;22.30;93.90;;;;;;5055855;28;20519;-72
2022/06/17 12:02:18;;;;;;;7.00;4.77;;;22.30;93.50;;;;;;5055145;28;20441;-72
2022/06/17 12:04:45;;;;;;;6.43;5.70;;;22.30;96.50;;;;;;5055852;28;20445;-70
2022/06/17 12:07:25;;;;;;;8.13;5.80;;;22.30;88.90;;;;;;5037140;28;20460;-67
2022/06/17 12:10:12;;;;;;;6.80;6.10;;;22.20;90.80;;;;;;5037621;28;20922;-73
2022/06/17 12:12:39;;;;;;;6.00;5.33;;;22.30;93.30;;;;;;5055726;28;20406;-68
2022/06/17 12:15:09;;;;;;;9.03;5.37;;;22.30;92.40;;;;;;5055551;28;20460;-69
2022/06/17 12:17:37;;;;;;;6.57;5.30;;;22.30;90.00;;;;;;5054681;28;20408;-69
2022/06/17 12:20:20;;;;;;;5.57;4.77;;;22.30;91.50;;;;;;5055034;28;20933;-71
2022/06/17 12:22:53;;;;;;;5.23;4.70;;;22.30;96.60;;;;;;5055243;28;20411;-68
2022/06/17 12:25:46;;;;;;;7.50;6.10;;;22.40;96.60;;;;;;5055498;28;20402;-67
2022/06/17 12:28:17;;;;;;;10.30;6.90;;;22.30;93.10;;;;;;5045859;28;21011;-68
2022/06/17 12:30:57;;;;;;;12.47;6.87;;;22.30;92.30;;;;;;5055509;28;20893;-68
2022/06/17 12:33:38;;;;;;;5.63;5.13;;;22.20;90.80;;;;;;5054925;28;20401;-70
2022/06/17 12:36:12;;;;;;;5.87;5.33;;;22.20;91.60;;;;;;5055309;28;20405;-69
2022/06/17 12:38:57;;;;;;;5.10;4.60;;;22.00;91.90;;;;;;5053809;28;20433;-72
2022/06/17 12:41:36;;;;;;;6.07;5.20;;;22.00;93.00;;;;;;5055287;28;20750;-71
2022/06/17 12:44:12;;;;;;;4.80;4.40;;;22.00;89.20;;;;;;5037155;28;20755;-67
2022/06/17 12:47:15;;;;;;;4.37;3.97;;;22.00;84.90;;;;;;5054370;28;20413;-68
2022/06/17 12:53:14;;;;;;;4.37;4.07;;;22.30;81.20;;;;;;5054963;28;20416;-72
2022/06/17 12:55:58;;;;;;;4.30;3.90;;;22.60;87.50;;;;;;5054402;28;20449;-72
2022/06/17 12:58:48;;;;;;;4.80;3.90;;;22.80;81.80;;;;;;5053772;28;20413;-68
2022/06/17 13:01:24;;;;;;;3.80;3.50;;;22.80;85.50;;;;;;5054924;28;20425;-68
2022/06/17 13:04:08;;;;;;;5.80;4.80;;;22.80;81.70;;;;;;5054692;28;20460;-72
2022/06/17 13:07:07;;;;;;;4.90;4.33;;;22.80;76.20;;;;;;5053817;28;20997;-69
2022/06/17 13:09:51;;;;;;;5.90;4.57;;;22.60;74.60;;;;;;5054547;28;20409;-69
2022/06/17 13:12:38;;;;;;;5.63;5.13;;;22.60;72.70;;;;;;5053987;28;20386;-71
2022/06/17 13:15:14;;;;;;;6.53;5.03;;;22.60;72.90;;;;;;5054361;28;20452;-68
2022/06/17 13:18:06;;;;;;;7.13;5.17;;;22.60;71.80;;;;;;5035715;28;20952;-68
2022/06/17 13:20:46;;;;;;;5.50;5.00;;;22.60;70.00;;;;;;5036835;28;20420;-72
2022/06/17 13:23:34;;;;;;;5.97;4.73;;;22.60;72.40;;;;;;5036598;28;20413;-69